Flight Track Log - Related Links

Times and Time Zones

All times are in EST time to prevent confusion due to time zone crossing. See the FIN666 flight status page for this flight to view local times or setup timezone preferences in your user account.

Time Position Orientation Groundspeed Altitude Reporting Facility
EST Latitude Longitude Course Direction KTS MPH feet Rate Location/Type
Thu 07:28:00 AM 55.8389 13.1126 49° Northeast  Level Estimated
Thu 07:29:00 AM 55.9122 13.2660 50° Northeast  Level Estimated
Thu 07:30:00 AM 55.9853 13.4199 50° Northeast  Level Estimated
Thu 07:31:00 AM 56.0582 13.5744 50° Northeast  Level Estimated
Thu 07:32:00 AM 56.1341 13.7364 50° Northeast  Level Estimated
Thu 07:33:00 AM 56.2098 13.8990 50° Northeast  Level Estimated
Thu 07:34:00 AM 56.2853 14.0623 50° Northeast  Level Estimated
Thu 07:35:00 AM 56.3605 14.2261 50° Northeast  Level Estimated
Thu 07:36:00 AM 56.4356 14.3907 50° Northeast  Level Estimated
Thu 07:37:00 AM 56.5104 14.5559 51° Northeast  Level Estimated
Thu 07:38:00 AM 56.5850 14.7217 51° Northeast  Level Estimated
Thu 07:39:00 AM 56.6594 14.8882 51° Northeast  Level Estimated
Thu 07:40:00 AM 56.7336 15.0554 51° Northeast  Level Estimated
Thu 07:41:00 AM 56.8075 15.2232 51° Northeast  Level Estimated
Thu 07:42:00 AM 56.8812 15.3917 51° Northeast  Level Estimated
Thu 07:43:00 AM 56.9547 15.5608 51° Northeast  Level Estimated
Thu 07:44:00 AM 57.0280 15.7306 52° Northeast  Level Estimated
Thu 07:45:00 AM 57.1010 15.9011 52° Northeast  Level Estimated
Thu 07:46:00 AM 57.1738 16.0722 52° Northeast  Level Estimated
Thu 07:47:00 AM 57.2463 16.2441 52° Northeast  Level Estimated
Thu 07:48:00 AM 57.3187 16.4166 52° Northeast  Level Estimated
Thu 07:49:00 AM 57.3908 16.5897 52° Northeast  Level Estimated
Thu 07:50:00 AM 57.4626 16.7636 52° Northeast  Level Estimated
Thu 07:51:00 AM 57.5342 16.9382 53° Northeast  Level Estimated
Thu 07:52:00 AM 57.6056 17.1134 53° Northeast  Level Estimated
Thu 07:53:00 AM 57.6767 17.2893 53° Northeast  Level Estimated
Thu 07:54:00 AM 57.7476 17.4659 53° Northeast  Level Estimated
Thu 07:55:00 AM 57.8182 17.6432 53° Northeast  Level Estimated
Thu 07:56:00 AM 57.8886 17.8212 53° Northeast  Level Estimated
Thu 07:57:00 AM 57.9587 17.9999 53° Northeast  Level Estimated
Thu 07:58:00 AM 58.0286 18.1793 54° Northeast  Level Estimated
Thu 07:59:00 AM 58.0982 18.3594 54° Northeast  Level Estimated
Thu 08:00:00 AM 58.1676 18.5402 54° Northeast  Level Estimated
Thu 08:01:00 AM 58.2367 18.7217 54° Northeast  Level Estimated
Thu 08:02:00 AM 58.3056 18.9039 54° Northeast  Level Estimated
Thu 08:03:00 AM 58.3742 19.0868 54° Northeast  Level Estimated
Thu 08:04:00 AM 58.4425 19.2705 55° Northeast  Level Estimated
Thu 08:05:00 AM 58.5106 19.4548 55° Northeast  Level Estimated
Thu 08:06:00 AM 58.5784 19.6399 55° Northeast  Level Estimated
Thu 08:07:00 AM 58.6460 19.8256 55° Northeast  Level Estimated
Thu 08:08:00 AM 58.7132 20.0121 55° Northeast  Level Estimated
Thu 08:09:00 AM 58.7802 20.1994 55° Northeast  Level Estimated
Thu 08:10:00 AM 58.8470 20.3873 55° Northeast  Level Estimated
Thu 08:11:00 AM 58.9134 20.5760 56° Northeast  Level Estimated
Thu 08:12:00 AM 58.9796 20.7653 56° Northeast  Level Estimated
Thu 08:13:00 AM 59.0455 20.9555 56° Northeast  Level Estimated
Thu 08:14:00 AM 59.1111 21.1463 56° Northeast  Level Estimated
Thu 08:15:00 AM 59.1765 21.3379 56° Northeast  Level Estimated
Thu 08:16:00 AM 59.2415 21.5302 56° Northeast  Level Estimated
Thu 08:17:00 AM 59.3063 21.7232 57° Northeast  Level Estimated
Thu 08:18:00 AM 59.3708 21.9170 57° Northeast  Level Estimated
Thu 08:19:00 AM 59.4350 22.1115 57° Northeast  Level Estimated
Thu 08:20:00 AM 59.4989 22.3068 57° Northeast  Level Estimated
Thu 08:21:00 AM 59.5625 22.5028 57° Northeast  Level Estimated
Thu 08:22:00 AM 59.6259 22.6995 57° Northeast  Level Estimated
Thu 08:23:00 AM 59.6889 22.8970 58° Northeast  Level Estimated
Thu 08:24:00 AM 59.7516 23.0952 58° Northeast  Level Estimated
Thu 08:25:00 AM 59.8140 23.2941 58° Northeast  Level Estimated
Thu 08:26:00 AM 59.8762 23.4938 58° Northeast  Level Estimated
Thu 08:27:00 AM 59.9380 23.6943 58° Northeast  Level Estimated
Thu 08:28:00 AM 59.9995 23.8955 58° Northeast  Level Estimated
Thu 08:29:00 AM 60.0607 24.0974 59° Northeast  Level Estimated
Thu 08:30:00 AM 60.1217 24.3001 59° Northeast  Level Estimated
Thu 08:31:00 AM 60.1822 24.5035 59° Northeast  Level Estimated
Thu 08:32:00 AM 60.2425 24.7077 59° Northeast  Level Estimated
Thu 08:33:00 AM 60.3025 24.9127 59° Northeast  Level Estimated
Thu 08:34:00 AM 60.3172 24.9633 60° Northeast  Level Estimated
Thu 08:35:00 AM 60.3172 24.9633 37° Northeast  Level Estimated
Thu 08:36:00 AM 60.3172 24.9633 37° Northeast  Level Estimated
Thu 08:37:00 AM 60.3172 24.9633 37° Northeast  Level Estimated
Thu 08:38:00 AM 60.3172 24.9633 37° Northeast  Level Estimated
Thu 08:39:00 AM 60.3172 24.9633 37° Northeast  Level Estimated
Thu 08:40:00 AM 60.3172 24.9633 37° Northeast  Level Estimated
Thu 08:41:00 AM 60.3172 24.9633 37° Northeast  Level Estimated
Thu 08:42:00 AM 60.3172 24.9633 37° Northeast  Level Estimated
Thu 08:43:00 AM 60.3172 24.9633 37° Northeast  Level Estimated

Login

Don't have an account? Register now (free) for customized features, flight alerts, and more!